Dalton-in-Furness, United Kingdom
Current Conditions -  °F | °C
As of 9:50 AM on Sunday 23 Nov 2014 (Local Time) from EGGP Reporting Station
Few Clouds Few Clouds  
Wind Chill: 45°   Ceiling: Unl
Heat Index: 48°   Visibility: 6mi
Dew Point: 43°   Wind: 7mph
Humidity: 82%   Direction: 300°WNW
Pressure: 30.06"   Gusts: NA
Location:  54.15°N, 3.17°W
Report Text: EGGP 230950Z 30006KT 9999 FEW018 09/06 Q1018
Loading
Personal Weather Stations






























Interactive Weather Map New forecast layout! Learn more

10-Day Weather Forecast

Advertisements
Track Severe Weather on mobile